Hauptseite
METAR-TAF:

METAR-TAF

Flughäfen :

Lyon, Frankreich

Breite: 45-43N, Länge: 004-57E, Höhe: 200 m

Beobachtung

Neuester Wetterbericht von vor 21 Minuten, um 14:30 UTC
Wind 12 kt aus Nord, variierte zwischen Nord/Nordwest und Nord/Nordost
Temperatur 26°C
Luftfeuchtigkeit 34%
Luftdruck 1021 hPa
Sichtweite 10 km oder mehr
keine Wolken unter 1500 m und keine Kumulonimbus oder Gewitterwolken

METAR: LFLY 111430Z AUTO 36012KT 330V030 CAVOK 26/09 Q1021 NOSIG

Zeit: 16:51 (14:51 UTC)

Prognose

Neuester Wetterbericht von vor 3 Stunden und 51 Minuten, um 11:00 UTC
Gültige Prognose vom 11 um 12 UTC bis 12 um 12 UTC
Wind 15 kt aus Nord
Sichtweite 10 km oder mehr
Leicht bewölkt in der Höhe von 4400 ft
Übergehend zu
vom 12 um 00 UTC bis 12 um 03 UTC
Wind 5 kt aus Nord/Nordwest

TAF: LFLY 111100Z 1112/1212 35015KT 9999 FEW044 BECMG 1200/1203 34005KT

Wetterbeobachtungen und Prognosen von mehr als 4000 Flughäfen (METAR und TAF Bericht).

Die verfügbaren Stationen werden durch gelbe und rote Markierungen auf der Karte dargestellt.

Führen Sie die Maus auf sie, um den Namen der Station zu sehen.

Darauf klicken, um die Beobachtung von Wetterbeobachtungen und Prognosen zu sehen.

Um die Karte zu ändern : klicken Sie auf den grünen Tasten mit einem schwarzen Kreuz Zum Vergrößern, auf den grünen Button mit einem Gedankenstrich zu verkleinern, oder auf die grünen Pfeile für benachbarte Karten.


METAR-TAF: